sensor_id;sensor_type;location;lat;lon;timestamp;P1;durP1;ratioP1;P2;durP2;ratioP2
19207;SDS011;9737;59.466;18.036;2023-02-15T00:01:48;14.35;;;6.70;;
19207;SDS011;9737;59.466;18.036;2023-02-15T00:04:17;20.20;;;7.03;;
19207;SDS011;9737;59.466;18.036;2023-02-15T00:06:47;16.10;;;6.53;;
19207;SDS011;9737;59.466;18.036;2023-02-15T00:09:16;14.15;;;6.97;;
19207;SDS011;9737;59.466;18.036;2023-02-15T00:11:44;17.30;;;7.05;;
19207;SDS011;9737;59.466;18.036;2023-02-15T00:14:17;17.60;;;7.10;;
19207;SDS011;9737;59.466;18.036;2023-02-15T00:16:46;15.40;;;6.95;;
19207;SDS011;9737;59.466;18.036;2023-02-15T00:19:16;17.80;;;7.00;;
19207;SDS011;9737;59.466;18.036;2023-02-15T00:21:46;17.88;;;7.03;;
19207;SDS011;9737;59.466;18.036;2023-02-15T00:24:15;19.85;;;6.68;;
19207;SDS011;9737;59.466;18.036;2023-02-15T00:26:46;14.77;;;6.20;;
19207;SDS011;9737;59.466;18.036;2023-02-15T00:29:16;14.80;;;6.93;;
19207;SDS011;9737;59.466;18.036;2023-02-15T00:31:45;14.77;;;6.93;;
19207;SDS011;9737;59.466;18.036;2023-02-15T00:34:15;18.05;;;6.97;;
19207;SDS011;9737;59.466;18.036;2023-02-15T00:36:45;13.50;;;6.68;;
19207;SDS011;9737;59.466;18.036;2023-02-15T00:39:13;18.17;;;7.03;;
19207;SDS011;9737;59.466;18.036;2023-02-15T00:41:44;17.15;;;6.43;;
19207;SDS011;9737;59.466;18.036;2023-02-15T00:44:14;20.30;;;6.85;;
19207;SDS011;9737;59.466;18.036;2023-02-15T00:46:42;16.00;;;6.43;;
19207;SDS011;9737;59.466;18.036;2023-02-15T00:49:10;13.35;;;6.55;;
19207;SDS011;9737;59.466;18.036;2023-02-15T00:51:39;17.60;;;6.75;;
19207;SDS011;9737;59.466;18.036;2023-02-15T00:54:07;14.70;;;6.70;;
19207;SDS011;9737;59.466;18.036;2023-02-15T00:56:35;15.52;;;6.32;;
19207;SDS011;9737;59.466;18.036;2023-02-15T00:59:04;14.65;;;6.78;;
19207;SDS011;9737;59.466;18.036;2023-02-15T01:01:32;19.27;;;6.47;;
19207;SDS011;9737;59.466;18.036;2023-02-15T01:04:01;15.25;;;6.88;;
19207;SDS011;9737;59.466;18.036;2023-02-15T01:06:29;14.25;;;6.30;;
19207;SDS011;9737;59.466;18.036;2023-02-15T01:08:56;16.08;;;7.43;;
19207;SDS011;9737;59.466;18.036;2023-02-15T01:11:24;17.02;;;6.60;;
19207;SDS011;9737;59.466;18.036;2023-02-15T01:13:53;12.70;;;6.43;;
19207;SDS011;9737;59.466;18.036;2023-02-15T01:16:24;18.10;;;6.20;;
19207;SDS011;9737;59.466;18.036;2023-02-15T01:18:53;15.15;;;5.88;;
19207;SDS011;9737;59.466;18.036;2023-02-15T01:21:22;19.50;;;6.68;;
19207;SDS011;9737;59.466;18.036;2023-02-15T01:23:52;15.05;;;6.05;;
19207;SDS011;9737;59.466;18.036;2023-02-15T01:26:21;10.68;;;6.28;;
19207;SDS011;9737;59.466;18.036;2023-02-15T01:28:48;16.95;;;5.70;;
19207;SDS011;9737;59.466;18.036;2023-02-15T01:31:17;13.43;;;6.05;;
19207;SDS011;9737;59.466;18.036;2023-02-15T01:33:49;13.50;;;6.05;;
19207;SDS011;9737;59.466;18.036;2023-02-15T01:36:17;15.63;;;6.00;;
19207;SDS011;9737;59.466;18.036;2023-02-15T01:38:45;16.35;;;5.60;;
19207;SDS011;9737;59.466;18.036;2023-02-15T01:41:13;14.35;;;5.75;;
19207;SDS011;9737;59.466;18.036;2023-02-15T01:43:50;12.40;;;6.85;;
19207;SDS011;9737;59.466;18.036;2023-02-15T01:46:21;13.82;;;6.03;;
19207;SDS011;9737;59.466;18.036;2023-02-15T01:48:54;15.20;;;6.75;;
19207;SDS011;9737;59.466;18.036;2023-02-15T01:51:27;17.13;;;5.78;;
19207;SDS011;9737;59.466;18.036;2023-02-15T01:53:59;15.27;;;6.28;;
19207;SDS011;9737;59.466;18.036;2023-02-15T01:56:33;14.32;;;5.75;;
19207;SDS011;9737;59.466;18.036;2023-02-15T01:59:04;15.85;;;6.18;;
19207;SDS011;9737;59.466;18.036;2023-02-15T02:01:35;12.60;;;5.80;;
19207;SDS011;9737;59.466;18.036;2023-02-15T02:04:08;13.52;;;6.35;;
19207;SDS011;9737;59.466;18.036;2023-02-15T02:06:40;12.05;;;6.10;;
19207;SDS011;9737;59.466;18.036;2023-02-15T02:09:08;17.70;;;6.10;;
19207;SDS011;9737;59.466;18.036;2023-02-15T02:11:36;12.57;;;6.13;;
19207;SDS011;9737;59.466;18.036;2023-02-15T02:14:06;21.13;;;6.57;;
19207;SDS011;9737;59.466;18.036;2023-02-15T02:16:37;14.25;;;6.07;;
19207;SDS011;9737;59.466;18.036;2023-02-15T02:19:19;12.80;;;6.03;;
19207;SDS011;9737;59.466;18.036;2023-02-15T02:22:14;15.85;;;5.93;;
19207;SDS011;9737;59.466;18.036;2023-02-15T02:25:20;14.48;;;6.25;;
19207;SDS011;9737;59.466;18.036;2023-02-15T02:28:06;12.00;;;6.47;;
19207;SDS011;9737;59.466;18.036;2023-02-15T02:34:14;14.63;;;6.50;;
19207;SDS011;9737;59.466;18.036;2023-02-15T02:36:48;15.57;;;6.15;;
19207;SDS011;9737;59.466;18.036;2023-02-15T02:39:22;13.85;;;7.05;;
19207;SDS011;9737;59.466;18.036;2023-02-15T02:41:58;13.98;;;6.82;;
19207;SDS011;9737;59.466;18.036;2023-02-15T02:44:35;16.23;;;6.88;;
19207;SDS011;9737;59.466;18.036;2023-02-15T02:47:11;12.60;;;6.13;;
19207;SDS011;9737;59.466;18.036;2023-02-15T02:49:46;13.23;;;6.35;;
19207;SDS011;9737;59.466;18.036;2023-02-15T02:55:03;15.20;;;7.18;;
19207;SDS011;9737;59.466;18.036;2023-02-15T02:57:33;16.20;;;7.15;;
19207;SDS011;9737;59.466;18.036;2023-02-15T03:00:03;14.70;;;6.72;;
19207;SDS011;9737;59.466;18.036;2023-02-15T03:02:35;13.32;;;6.55;;
19207;SDS011;9737;59.466;18.036;2023-02-15T03:05:07;13.38;;;6.75;;
19207;SDS011;9737;59.466;18.036;2023-02-15T03:07:40;16.52;;;6.53;;
19207;SDS011;9737;59.466;18.036;2023-02-15T03:10:10;12.02;;;6.13;;
19207;SDS011;9737;59.466;18.036;2023-02-15T03:12:39;15.68;;;6.80;;
19207;SDS011;9737;59.466;18.036;2023-02-15T03:15:08;12.88;;;6.57;;
19207;SDS011;9737;59.466;18.036;2023-02-15T03:17:40;14.48;;;6.28;;
19207;SDS011;9737;59.466;18.036;2023-02-15T03:20:14;12.13;;;6.15;;
19207;SDS011;9737;59.466;18.036;2023-02-15T03:22:47;13.05;;;6.97;;
19207;SDS011;9737;59.466;18.036;2023-02-15T03:25:19;17.30;;;6.97;;
19207;SDS011;9737;59.466;18.036;2023-02-15T03:27:51;19.17;;;6.82;;
19207;SDS011;9737;59.466;18.036;2023-02-15T03:30:23;18.90;;;7.18;;
19207;SDS011;9737;59.466;18.036;2023-02-15T03:32:52;11.00;;;6.38;;
19207;SDS011;9737;59.466;18.036;2023-02-15T03:35:23;15.32;;;6.80;;
19207;SDS011;9737;59.466;18.036;2023-02-15T03:37:58;13.88;;;7.10;;
19207;SDS011;9737;59.466;18.036;2023-02-15T03:40:29;15.48;;;6.88;;
19207;SDS011;9737;59.466;18.036;2023-02-15T03:43:18;17.73;;;6.90;;
19207;SDS011;9737;59.466;18.036;2023-02-15T03:45:52;17.35;;;7.32;;
19207;SDS011;9737;59.466;18.036;2023-02-15T03:48:26;17.95;;;7.53;;
19207;SDS011;9737;59.466;18.036;2023-02-15T03:51:00;25.08;;;7.90;;
19207;SDS011;9737;59.466;18.036;2023-02-15T03:53:49;17.00;;;7.03;;
19207;SDS011;9737;59.466;18.036;2023-02-15T03:56:19;16.42;;;7.10;;
19207;SDS011;9737;59.466;18.036;2023-02-15T03:58:47;16.55;;;7.70;;
19207;SDS011;9737;59.466;18.036;2023-02-15T04:01:33;12.07;;;6.72;;
19207;SDS011;9737;59.466;18.036;2023-02-15T04:04:35;15.75;;;6.93;;
19207;SDS011;9737;59.466;18.036;2023-02-15T04:07:05;15.77;;;7.45;;
19207;SDS011;9737;59.466;18.036;2023-02-15T04:09:35;15.75;;;7.13;;
19207;SDS011;9737;59.466;18.036;2023-02-15T04:12:20;15.10;;;6.65;;
19207;SDS011;9737;59.466;18.036;2023-02-15T04:14:49;17.67;;;7.20;;
19207;SDS011;9737;59.466;18.036;2023-02-15T04:17:35;11.93;;;6.63;;
19207;SDS011;9737;59.466;18.036;2023-02-15T04:20:05;15.57;;;7.68;;
19207;SDS011;9737;59.466;18.036;2023-02-15T04:22:53;18.67;;;8.30;;
19207;SDS011;9737;59.466;18.036;2023-02-15T04:25:38;18.00;;;8.18;;
19207;SDS011;9737;59.466;18.036;2023-02-15T04:28:06;14.85;;;7.00;;
19207;SDS011;9737;59.466;18.036;2023-02-15T04:30:34;16.38;;;7.93;;
19207;SDS011;9737;59.466;18.036;2023-02-15T04:33:02;16.77;;;7.03;;
19207;SDS011;9737;59.466;18.036;2023-02-15T04:35:32;16.20;;;7.53;;
19207;SDS011;9737;59.466;18.036;2023-02-15T04:37:59;17.25;;;7.97;;
19207;SDS011;9737;59.466;18.036;2023-02-15T04:40:28;19.38;;;7.75;;
19207;SDS011;9737;59.466;18.036;2023-02-15T04:42:56;20.15;;;7.85;;
19207;SDS011;9737;59.466;18.036;2023-02-15T04:45:23;20.42;;;7.80;;
19207;SDS011;9737;59.466;18.036;2023-02-15T04:47:53;16.77;;;8.10;;
19207;SDS011;9737;59.466;18.036;2023-02-15T04:50:21;15.90;;;8.00;;
19207;SDS011;9737;59.466;18.036;2023-02-15T04:52:51;23.48;;;8.80;;
19207;SDS011;9737;59.466;18.036;2023-02-15T04:55:19;17.85;;;7.90;;
19207;SDS011;9737;59.466;18.036;2023-02-15T04:57:47;18.73;;;8.23;;
19207;SDS011;9737;59.466;18.036;2023-02-15T05:00:15;21.83;;;8.43;;
19207;SDS011;9737;59.466;18.036;2023-02-15T05:02:43;19.92;;;9.02;;
19207;SDS011;9737;59.466;18.036;2023-02-15T05:05:11;21.38;;;8.27;;
19207;SDS011;9737;59.466;18.036;2023-02-15T05:07:41;20.02;;;9.07;;
19207;SDS011;9737;59.466;18.036;2023-02-15T05:10:10;22.13;;;8.85;;
19207;SDS011;9737;59.466;18.036;2023-02-15T05:12:38;21.80;;;9.10;;
19207;SDS011;9737;59.466;18.036;2023-02-15T05:15:06;21.85;;;9.00;;
19207;SDS011;9737;59.466;18.036;2023-02-15T05:17:35;24.05;;;10.23;;
19207;SDS011;9737;59.466;18.036;2023-02-15T05:20:03;22.00;;;8.85;;
19207;SDS011;9737;59.466;18.036;2023-02-15T05:22:31;21.02;;;8.93;;
19207;SDS011;9737;59.466;18.036;2023-02-15T05:24:59;25.40;;;10.52;;
19207;SDS011;9737;59.466;18.036;2023-02-15T05:27:46;26.75;;;10.02;;
19207;SDS011;9737;59.466;18.036;2023-02-15T05:30:31;23.77;;;9.63;;
19207;SDS011;9737;59.466;18.036;2023-02-15T05:33:00;24.48;;;8.98;;
19207;SDS011;9737;59.466;18.036;2023-02-15T05:35:27;23.27;;;9.55;;
19207;SDS011;9737;59.466;18.036;2023-02-15T05:37:55;24.33;;;9.35;;
19207;SDS011;9737;59.466;18.036;2023-02-15T05:40:23;21.60;;;9.38;;
19207;SDS011;9737;59.466;18.036;2023-02-15T05:42:52;25.48;;;9.25;;
19207;SDS011;9737;59.466;18.036;2023-02-15T05:45:20;25.00;;;9.43;;
19207;SDS011;9737;59.466;18.036;2023-02-15T05:47:48;25.63;;;10.45;;
19207;SDS011;9737;59.466;18.036;2023-02-15T05:50:16;23.20;;;9.63;;
19207;SDS011;9737;59.466;18.036;2023-02-15T05:52:44;21.00;;;9.05;;
19207;SDS011;9737;59.466;18.036;2023-02-15T05:55:12;20.65;;;8.82;;
19207;SDS011;9737;59.466;18.036;2023-02-15T05:57:40;26.33;;;9.68;;
19207;SDS011;9737;59.466;18.036;2023-02-15T06:00:10;22.35;;;9.75;;
19207;SDS011;9737;59.466;18.036;2023-02-15T06:02:40;22.48;;;9.77;;
19207;SDS011;9737;59.466;18.036;2023-02-15T06:05:08;26.13;;;9.98;;
19207;SDS011;9737;59.466;18.036;2023-02-15T06:07:36;21.58;;;9.98;;
19207;SDS011;9737;59.466;18.036;2023-02-15T06:10:04;21.92;;;9.98;;
19207;SDS011;9737;59.466;18.036;2023-02-15T06:12:33;18.88;;;9.05;;
19207;SDS011;9737;59.466;18.036;2023-02-15T06:15:01;22.58;;;9.25;;
19207;SDS011;9737;59.466;18.036;2023-02-15T06:17:30;26.35;;;10.15;;
19207;SDS011;9737;59.466;18.036;2023-02-15T06:19:59;23.85;;;10.10;;
19207;SDS011;9737;59.466;18.036;2023-02-15T06:22:26;28.98;;;9.75;;
19207;SDS011;9737;59.466;18.036;2023-02-15T06:24:54;22.00;;;9.82;;
19207;SDS011;9737;59.466;18.036;2023-02-15T06:27:22;27.00;;;9.65;;
19207;SDS011;9737;59.466;18.036;2023-02-15T06:29:50;25.15;;;9.98;;
19207;SDS011;9737;59.466;18.036;2023-02-15T06:32:18;23.88;;;10.10;;
19207;SDS011;9737;59.466;18.036;2023-02-15T06:34:47;27.42;;;9.70;;
19207;SDS011;9737;59.466;18.036;2023-02-15T06:37:15;25.38;;;9.95;;
19207;SDS011;9737;59.466;18.036;2023-02-15T06:39:43;23.58;;;10.00;;
19207;SDS011;9737;59.466;18.036;2023-02-15T06:42:11;23.90;;;9.77;;
19207;SDS011;9737;59.466;18.036;2023-02-15T06:44:39;27.88;;;9.77;;
19207;SDS011;9737;59.466;18.036;2023-02-15T06:47:06;22.90;;;10.30;;
19207;SDS011;9737;59.466;18.036;2023-02-15T06:49:34;24.92;;;10.23;;
19207;SDS011;9737;59.466;18.036;2023-02-15T06:52:04;21.95;;;9.70;;
19207;SDS011;9737;59.466;18.036;2023-02-15T06:54:32;24.42;;;10.25;;
19207;SDS011;9737;59.466;18.036;2023-02-15T06:57:00;25.48;;;10.73;;
19207;SDS011;9737;59.466;18.036;2023-02-15T06:59:28;21.45;;;9.90;;
19207;SDS011;9737;59.466;18.036;2023-02-15T07:01:56;27.83;;;9.85;;
19207;SDS011;9737;59.466;18.036;2023-02-15T07:04:25;22.88;;;9.70;;
19207;SDS011;9737;59.466;18.036;2023-02-15T07:06:55;27.25;;;10.82;;
19207;SDS011;9737;59.466;18.036;2023-02-15T07:09:24;28.48;;;11.27;;
19207;SDS011;9737;59.466;18.036;2023-02-15T07:11:52;23.13;;;10.38;;
19207;SDS011;9737;59.466;18.036;2023-02-15T07:14:38;24.58;;;10.32;;
19207;SDS011;9737;59.466;18.036;2023-02-15T07:17:07;26.60;;;10.02;;
19207;SDS011;9737;59.466;18.036;2023-02-15T07:19:55;23.20;;;9.57;;
19207;SDS011;9737;59.466;18.036;2023-02-15T07:22:23;22.40;;;10.40;;
19207;SDS011;9737;59.466;18.036;2023-02-15T07:24:52;29.33;;;10.73;;
19207;SDS011;9737;59.466;18.036;2023-02-15T07:27:21;27.27;;;11.30;;
19207;SDS011;9737;59.466;18.036;2023-02-15T07:29:49;24.17;;;10.00;;
19207;SDS011;9737;59.466;18.036;2023-02-15T07:32:17;25.42;;;9.35;;
19207;SDS011;9737;59.466;18.036;2023-02-15T07:34:45;19.95;;;9.00;;
19207;SDS011;9737;59.466;18.036;2023-02-15T07:37:13;24.80;;;9.73;;
19207;SDS011;9737;59.466;18.036;2023-02-15T07:39:40;22.27;;;9.60;;
19207;SDS011;9737;59.466;18.036;2023-02-15T07:42:10;22.90;;;8.80;;
19207;SDS011;9737;59.466;18.036;2023-02-15T07:44:38;22.02;;;9.48;;
19207;SDS011;9737;59.466;18.036;2023-02-15T07:47:06;19.42;;;9.00;;
19207;SDS011;9737;59.466;18.036;2023-02-15T07:49:34;19.42;;;8.98;;
19207;SDS011;9737;59.466;18.036;2023-02-15T07:52:02;24.40;;;10.05;;
19207;SDS011;9737;59.466;18.036;2023-02-15T07:54:30;18.55;;;8.45;;
19207;SDS011;9737;59.466;18.036;2023-02-15T07:56:57;21.63;;;8.95;;
19207;SDS011;9737;59.466;18.036;2023-02-15T07:59:27;23.40;;;9.57;;
19207;SDS011;9737;59.466;18.036;2023-02-15T08:01:55;21.90;;;9.50;;
19207;SDS011;9737;59.466;18.036;2023-02-15T08:04:23;19.80;;;8.82;;
19207;SDS011;9737;59.466;18.036;2023-02-15T08:06:52;18.52;;;9.20;;
19207;SDS011;9737;59.466;18.036;2023-02-15T08:09:21;17.85;;;8.18;;
19207;SDS011;9737;59.466;18.036;2023-02-15T08:11:49;24.02;;;8.65;;
19207;SDS011;9737;59.466;18.036;2023-02-15T08:14:18;22.60;;;9.57;;
19207;SDS011;9737;59.466;18.036;2023-02-15T08:16:50;20.77;;;8.90;;
19207;SDS011;9737;59.466;18.036;2023-02-15T08:19:19;20.80;;;8.60;;
19207;SDS011;9737;59.466;18.036;2023-02-15T08:21:49;20.10;;;8.63;;
19207;SDS011;9737;59.466;18.036;2023-02-15T08:24:20;21.80;;;9.15;;
19207;SDS011;9737;59.466;18.036;2023-02-15T08:26:49;22.85;;;9.35;;
19207;SDS011;9737;59.466;18.036;2023-02-15T08:29:19;22.67;;;9.80;;
19207;SDS011;9737;59.466;18.036;2023-02-15T08:31:52;19.38;;;8.43;;
19207;SDS011;9737;59.466;18.036;2023-02-15T08:34:21;22.27;;;10.02;;
19207;SDS011;9737;59.466;18.036;2023-02-15T08:36:49;22.50;;;9.75;;
19207;SDS011;9737;59.466;18.036;2023-02-15T08:39:17;22.23;;;9.60;;
19207;SDS011;9737;59.466;18.036;2023-02-15T08:41:45;20.17;;;9.15;;
19207;SDS011;9737;59.466;18.036;2023-02-15T08:44:15;20.83;;;9.35;;
19207;SDS011;9737;59.466;18.036;2023-02-15T08:46:45;23.83;;;9.30;;
19207;SDS011;9737;59.466;18.036;2023-02-15T08:49:16;18.70;;;8.00;;
19207;SDS011;9737;59.466;18.036;2023-02-15T08:51:46;16.77;;;7.85;;
19207;SDS011;9737;59.466;18.036;2023-02-15T08:54:15;17.20;;;7.88;;
19207;SDS011;9737;59.466;18.036;2023-02-15T08:56:45;18.63;;;8.02;;
19207;SDS011;9737;59.466;18.036;2023-02-15T08:59:14;19.42;;;8.43;;
19207;SDS011;9737;59.466;18.036;2023-02-15T09:01:44;16.50;;;7.82;;
19207;SDS011;9737;59.466;18.036;2023-02-15T09:04:16;20.02;;;7.85;;
19207;SDS011;9737;59.466;18.036;2023-02-15T09:06:46;16.15;;;8.27;;
19207;SDS011;9737;59.466;18.036;2023-02-15T09:09:15;16.73;;;7.78;;
19207;SDS011;9737;59.466;18.036;2023-02-15T09:11:44;16.52;;;7.95;;
19207;SDS011;9737;59.466;18.036;2023-02-15T09:14:15;15.52;;;7.35;;
19207;SDS011;9737;59.466;18.036;2023-02-15T09:16:45;14.48;;;6.90;;
19207;SDS011;9737;59.466;18.036;2023-02-15T09:19:17;16.52;;;7.40;;
19207;SDS011;9737;59.466;18.036;2023-02-15T09:21:46;15.25;;;7.40;;
19207;SDS011;9737;59.466;18.036;2023-02-15T09:24:14;17.00;;;7.13;;
19207;SDS011;9737;59.466;18.036;2023-02-15T09:26:44;17.25;;;7.00;;
19207;SDS011;9737;59.466;18.036;2023-02-15T09:29:14;19.30;;;8.13;;
19207;SDS011;9737;59.466;18.036;2023-02-15T09:31:43;17.13;;;7.22;;
19207;SDS011;9737;59.466;18.036;2023-02-15T09:34:12;19.05;;;7.38;;
19207;SDS011;9737;59.466;18.036;2023-02-15T09:36:44;14.52;;;7.10;;
19207;SDS011;9737;59.466;18.036;2023-02-15T09:39:13;17.30;;;8.13;;
19207;SDS011;9737;59.466;18.036;2023-02-15T09:41:54;13.20;;;6.97;;
19207;SDS011;9737;59.466;18.036;2023-02-15T09:47:48;15.35;;;7.18;;
19207;SDS011;9737;59.466;18.036;2023-02-15T09:50:44;14.65;;;6.47;;
19207;SDS011;9737;59.466;18.036;2023-02-15T09:53:27;15.38;;;7.05;;
19207;SDS011;9737;59.466;18.036;2023-02-15T09:56:05;15.70;;;7.03;;
19207;SDS011;9737;59.466;18.036;2023-02-15T09:58:39;15.63;;;7.50;;
19207;SDS011;9737;59.466;18.036;2023-02-15T10:01:17;13.50;;;6.63;;
19207;SDS011;9737;59.466;18.036;2023-02-15T10:03:59;15.93;;;7.68;;
19207;SDS011;9737;59.466;18.036;2023-02-15T10:06:38;16.83;;;7.00;;
19207;SDS011;9737;59.466;18.036;2023-02-15T10:12:21;17.23;;;7.75;;
19207;SDS011;9737;59.466;18.036;2023-02-15T10:18:01;18.25;;;7.00;;
19207;SDS011;9737;59.466;18.036;2023-02-15T10:20:45;17.35;;;7.97;;
19207;SDS011;9737;59.466;18.036;2023-02-15T10:23:28;18.05;;;7.70;;
19207;SDS011;9737;59.466;18.036;2023-02-15T10:26:11;17.02;;;7.47;;
19207;SDS011;9737;59.466;18.036;2023-02-15T10:28:45;17.67;;;8.20;;
19207;SDS011;9737;59.466;18.036;2023-02-15T10:31:23;14.73;;;7.30;;
19207;SDS011;9737;59.466;18.036;2023-02-15T10:33:59;16.42;;;8.05;;
19207;SDS011;9737;59.466;18.036;2023-02-15T10:36:43;17.48;;;6.95;;
19207;SDS011;9737;59.466;18.036;2023-02-15T10:39:26;14.50;;;6.55;;
19207;SDS011;9737;59.466;18.036;2023-02-15T10:42:04;16.52;;;7.03;;
19207;SDS011;9737;59.466;18.036;2023-02-15T10:44:41;17.10;;;7.60;;
19207;SDS011;9737;59.466;18.036;2023-02-15T10:47:26;15.43;;;7.30;;
19207;SDS011;9737;59.466;18.036;2023-02-15T10:50:16;18.48;;;8.05;;
19207;SDS011;9737;59.466;18.036;2023-02-15T10:52:58;18.45;;;7.63;;
19207;SDS011;9737;59.466;18.036;2023-02-15T10:55:39;18.45;;;7.60;;
19207;SDS011;9737;59.466;18.036;2023-02-15T10:58:20;17.38;;;7.65;;
19207;SDS011;9737;59.466;18.036;2023-02-15T11:01:01;18.45;;;7.75;;
19207;SDS011;9737;59.466;18.036;2023-02-15T11:03:48;19.58;;;8.75;;
19207;SDS011;9737;59.466;18.036;2023-02-15T11:06:33;19.73;;;8.25;;
19207;SDS011;9737;59.466;18.036;2023-02-15T11:09:04;20.05;;;7.68;;
19207;SDS011;9737;59.466;18.036;2023-02-15T11:11:38;14.93;;;6.93;;
19207;SDS011;9737;59.466;18.036;2023-02-15T11:14:13;22.23;;;8.75;;
19207;SDS011;9737;59.466;18.036;2023-02-15T11:16:44;18.05;;;8.23;;
19207;SDS011;9737;59.466;18.036;2023-02-15T11:19:17;17.23;;;7.90;;
19207;SDS011;9737;59.466;18.036;2023-02-15T11:21:50;20.30;;;8.80;;
19207;SDS011;9737;59.466;18.036;2023-02-15T11:24:24;17.98;;;7.85;;
19207;SDS011;9737;59.466;18.036;2023-02-15T11:26:56;20.65;;;7.78;;
19207;SDS011;9737;59.466;18.036;2023-02-15T11:29:30;21.77;;;8.60;;
19207;SDS011;9737;59.466;18.036;2023-02-15T11:32:02;20.90;;;8.07;;
19207;SDS011;9737;59.466;18.036;2023-02-15T11:34:44;18.50;;;7.53;;
19207;SDS011;9737;59.466;18.036;2023-02-15T11:37:20;19.95;;;7.63;;
19207;SDS011;9737;59.466;18.036;2023-02-15T11:39:55;21.40;;;8.30;;
19207;SDS011;9737;59.466;18.036;2023-02-15T11:42:25;23.98;;;8.27;;
19207;SDS011;9737;59.466;18.036;2023-02-15T11:44:58;18.05;;;7.82;;
19207;SDS011;9737;59.466;18.036;2023-02-15T11:47:31;21.40;;;8.57;;
19207;SDS011;9737;59.466;18.036;2023-02-15T11:49:59;18.92;;;8.40;;
19207;SDS011;9737;59.466;18.036;2023-02-15T11:52:27;17.70;;;7.38;;
19207;SDS011;9737;59.466;18.036;2023-02-15T11:54:55;22.75;;;8.35;;
19207;SDS011;9737;59.466;18.036;2023-02-15T11:57:24;18.00;;;8.15;;
19207;SDS011;9737;59.466;18.036;2023-02-15T11:59:56;21.67;;;8.25;;
19207;SDS011;9737;59.466;18.036;2023-02-15T12:02:30;21.52;;;9.23;;
19207;SDS011;9737;59.466;18.036;2023-02-15T12:05:01;38.65;;;12.38;;
19207;SDS011;9737;59.466;18.036;2023-02-15T12:07:35;25.13;;;8.90;;
19207;SDS011;9737;59.466;18.036;2023-02-15T12:10:05;20.58;;;8.38;;
19207;SDS011;9737;59.466;18.036;2023-02-15T12:12:46;21.98;;;8.57;;
19207;SDS011;9737;59.466;18.036;2023-02-15T12:15:16;21.08;;;8.13;;
19207;SDS011;9737;59.466;18.036;2023-02-15T12:17:58;20.00;;;8.48;;
19207;SDS011;9737;59.466;18.036;2023-02-15T12:20:28;21.85;;;8.35;;
19207;SDS011;9737;59.466;18.036;2023-02-15T12:22:59;22.75;;;8.45;;
19207;SDS011;9737;59.466;18.036;2023-02-15T12:25:30;20.23;;;8.05;;
19207;SDS011;9737;59.466;18.036;2023-02-15T12:28:03;20.88;;;8.38;;
19207;SDS011;9737;59.466;18.036;2023-02-15T12:30:45;24.60;;;9.05;;
19207;SDS011;9737;59.466;18.036;2023-02-15T12:33:14;21.88;;;8.55;;
19207;SDS011;9737;59.466;18.036;2023-02-15T12:35:44;23.77;;;9.35;;
19207;SDS011;9737;59.466;18.036;2023-02-15T12:38:21;19.95;;;8.27;;
19207;SDS011;9737;59.466;18.036;2023-02-15T12:40:57;21.15;;;9.07;;
19207;SDS011;9737;59.466;18.036;2023-02-15T12:43:27;18.75;;;8.15;;
19207;SDS011;9737;59.466;18.036;2023-02-15T12:46:21;30.27;;;8.77;;
19207;SDS011;9737;59.466;18.036;2023-02-15T12:49:04;24.08;;;9.13;;
19207;SDS011;9737;59.466;18.036;2023-02-15T12:51:44;21.35;;;8.13;;
19207;SDS011;9737;59.466;18.036;2023-02-15T12:54:17;24.80;;;9.23;;
19207;SDS011;9737;59.466;18.036;2023-02-15T12:57:12;26.27;;;9.13;;
19207;SDS011;9737;59.466;18.036;2023-02-15T12:59:53;23.10;;;9.63;;
19207;SDS011;9737;59.466;18.036;2023-02-15T13:02:25;25.45;;;9.70;;
19207;SDS011;9737;59.466;18.036;2023-02-15T13:04:55;22.05;;;9.48;;
19207;SDS011;9737;59.466;18.036;2023-02-15T13:07:25;24.63;;;8.93;;
19207;SDS011;9737;59.466;18.036;2023-02-15T13:09:58;24.55;;;9.05;;
19207;SDS011;9737;59.466;18.036;2023-02-15T13:12:27;24.10;;;9.05;;
19207;SDS011;9737;59.466;18.036;2023-02-15T13:14:58;28.58;;;10.63;;
19207;SDS011;9737;59.466;18.036;2023-02-15T13:17:30;27.42;;;8.90;;
19207;SDS011;9737;59.466;18.036;2023-02-15T13:20:02;25.65;;;9.85;;
19207;SDS011;9737;59.466;18.036;2023-02-15T13:22:37;23.67;;;9.20;;
19207;SDS011;9737;59.466;18.036;2023-02-15T13:25:11;23.15;;;9.32;;
19207;SDS011;9737;59.466;18.036;2023-02-15T13:27:42;29.17;;;10.65;;
19207;SDS011;9737;59.466;18.036;2023-02-15T13:30:23;23.85;;;9.07;;
19207;SDS011;9737;59.466;18.036;2023-02-15T13:32:55;26.50;;;9.38;;
19207;SDS011;9737;59.466;18.036;2023-02-15T13:35:27;28.48;;;9.45;;
19207;SDS011;9737;59.466;18.036;2023-02-15T13:38:09;23.27;;;9.25;;
19207;SDS011;9737;59.466;18.036;2023-02-15T13:40:48;27.55;;;10.20;;
19207;SDS011;9737;59.466;18.036;2023-02-15T13:43:30;24.50;;;9.93;;
19207;SDS011;9737;59.466;18.036;2023-02-15T13:46:12;25.30;;;9.18;;
19207;SDS011;9737;59.466;18.036;2023-02-15T13:48:51;22.77;;;9.52;;
19207;SDS011;9737;59.466;18.036;2023-02-15T13:51:31;25.33;;;9.85;;
19207;SDS011;9737;59.466;18.036;2023-02-15T14:00:12;22.52;;;8.73;;
19207;SDS011;9737;59.466;18.036;2023-02-15T14:05:58;24.90;;;9.30;;
19207;SDS011;9737;59.466;18.036;2023-02-15T14:08:38;24.13;;;9.15;;
19207;SDS011;9737;59.466;18.036;2023-02-15T14:11:15;24.08;;;9.93;;
19207;SDS011;9737;59.466;18.036;2023-02-15T14:14:00;30.10;;;10.02;;
19207;SDS011;9737;59.466;18.036;2023-02-15T14:16:45;22.92;;;8.93;;
19207;SDS011;9737;59.466;18.036;2023-02-15T14:19:34;24.23;;;9.75;;
19207;SDS011;9737;59.466;18.036;2023-02-15T14:22:07;23.02;;;9.00;;
19207;SDS011;9737;59.466;18.036;2023-02-15T14:24:44;26.88;;;9.18;;
19207;SDS011;9737;59.466;18.036;2023-02-15T14:27:19;23.58;;;8.90;;
19207;SDS011;9737;59.466;18.036;2023-02-15T14:29:55;23.17;;;8.65;;
19207;SDS011;9737;59.466;18.036;2023-02-15T14:32:26;23.48;;;9.30;;
19207;SDS011;9737;59.466;18.036;2023-02-15T14:34:59;20.88;;;8.02;;
19207;SDS011;9737;59.466;18.036;2023-02-15T14:37:31;20.10;;;8.10;;
19207;SDS011;9737;59.466;18.036;2023-02-15T14:40:10;26.65;;;9.00;;
19207;SDS011;9737;59.466;18.036;2023-02-15T14:43:06;22.02;;;8.88;;
19207;SDS011;9737;59.466;18.036;2023-02-15T14:45:40;21.73;;;9.05;;
19207;SDS011;9737;59.466;18.036;2023-02-15T14:48:24;23.38;;;8.63;;
19207;SDS011;9737;59.466;18.036;2023-02-15T14:50:58;20.45;;;7.90;;
19207;SDS011;9737;59.466;18.036;2023-02-15T14:53:36;19.25;;;7.47;;
19207;SDS011;9737;59.466;18.036;2023-02-15T14:56:22;20.65;;;8.18;;
19207;SDS011;9737;59.466;18.036;2023-02-15T14:58:56;20.73;;;7.50;;
19207;SDS011;9737;59.466;18.036;2023-02-15T15:01:27;18.92;;;7.68;;
19207;SDS011;9737;59.466;18.036;2023-02-15T15:03:58;20.02;;;7.43;;
19207;SDS011;9737;59.466;18.036;2023-02-15T15:06:30;20.65;;;8.05;;
19207;SDS011;9737;59.466;18.036;2023-02-15T15:09:10;18.95;;;7.05;;
19207;SDS011;9737;59.466;18.036;2023-02-15T15:11:41;17.45;;;7.93;;
19207;SDS011;9737;59.466;18.036;2023-02-15T15:17:12;22.92;;;8.00;;
19207;SDS011;9737;59.466;18.036;2023-02-15T15:20:10;19.75;;;7.15;;
19207;SDS011;9737;59.466;18.036;2023-02-15T15:22:41;20.23;;;8.35;;
19207;SDS011;9737;59.466;18.036;2023-02-15T15:25:12;22.60;;;9.10;;
19207;SDS011;9737;59.466;18.036;2023-02-15T15:31:14;21.52;;;8.20;;
19207;SDS011;9737;59.466;18.036;2023-02-15T15:33:56;17.75;;;8.07;;
19207;SDS011;9737;59.466;18.036;2023-02-15T15:40:17;20.50;;;8.15;;
19207;SDS011;9737;59.466;18.036;2023-02-15T15:43:14;23.25;;;7.82;;